Evanston, Iowa
Current Conditions -  °F | °C
As of 3:15 PM on Monday 22 Dec 2014 (Local Time) from KEBS Reporting Station
Haze Haze  
Wind Chill: 29°   Ceiling: 500
Heat Index: 37°   Visibility: 4mi
Dew Point: 37°   Wind: 13mph
Humidity: 100%   Direction: 120°ESE
Pressure: 29.46"   Gusts: 20mph
Location:  42.4323°N, 94.0232°W
Report Text: KEBS 222115Z AUTO 12011G17KT 4SM BR OVC005 03/03 A2946 RMK AO2
Loading
Personal Weather Stations






























Interactive Weather Map New forecast layout! Learn more

10-Day Weather Forecast

Advertisements
Track Severe Weather on mobile